Nearby METAR Reports

 

LIBG - Grottaglie(Civ/A, Italy
Distance from station: NØ 13km
Opdateret: 27/02/2024 15:50
Few Clouds
Few Clouds
 Vind retning SSØ
Vind: SSØ 31 km/h
Temperatur: 15°C
Dugpunkt: 11°C
Fugtighed: 77%
Barometer: 1011 hPa
Clouds: Few Clouds
Visibility: 10 km
Cloud details: Few Clouds 610 m
2024/02/27 14:50 LIBG 271450Z 15017KT 9999 FEW020 15/11 Q1011
LIBH - Marina Di Ginosa, Italy
Distance from station: V 33km
Opdateret: 27/02/2024 15:55
Few Clouds
Few Clouds
 Vind retning SSØ
Vind: SSØ 46 km/h
Temperatur: 16°C
Dugpunkt: 13°C
Fugtighed: 83%
Barometer: 1010 hPa
Clouds: Few Clouds
Visibility: 10 km
Cloud details: Few Clouds 457 m
2024/02/27 14:55 LIBH 271455Z 15025KT 9999 FEW015 16/13 Q1010 RMK OVC OVC200 QUK 3 QUL 2 SE VIS MAR 15 KM VIS MIN 9999
 
LIBV - Gioia Del Colle, Italy
Distance from station: NV 45km
Opdateret: 27/02/2024 15:55
Mest skyet
Mest skyet
 Vind retning SSØ
Vind: SSØ 46 km/h
Temperatur: 13°C
Dugpunkt: 11°C
Fugtighed: 88%
Barometer: 1010 hPa
Clouds: Mest skyet
Visibility: 6 km
Cloud details: Mest skyet 274 m
2024/02/27 14:55 LIBV 271455Z 15025KT 6000 BKN009 13/11 Q1010
LIBR - Brindisi/Casale, Italy
Distance from station: ØNØ 62km
Opdateret: 27/02/2024 16:50
Klart
Klart
 Vind retning SSØ
Vind: SSØ 22 km/h
Temperatur: 16°C
Dugpunkt: 13°C
Fugtighed: 83%
Barometer: 1012 hPa
Oversigt: Klart
Visibility: greater than 10 km
2024/02/27 15:50 LIBR 271550Z 16012KT CAVOK 16/13 Q1012
 
LIBN - Lecce (it-Afb), Italy
Distance from station: ØSØ 79km
Opdateret: 27/02/2024 15:55
Delvist skyet
Delvist skyet
 Vind retning SSØ
Vind: SSØ 31 km/h
Temperatur: 15°C
Dugpunkt: 13°C
Fugtighed: 88%
Barometer: 1012 hPa
Clouds: Delvist skyet
Visibility: 10 km
Cloud details: Delvist skyet 762 m
2024/02/27 14:55 LIBN 271455Z 16017KT 9999 SCT025 15/13 Q1012
LIBD - Bari/Palese Macc, Italy
Distance from station: NNV 85km
Opdateret: 27/02/2024 16:50
Few Clouds
Few Clouds
 Vind retning SSØ
Vind: SSØ 26 km/h, Vindstød: 46 km/h
Temperatur: 16°C
Dugpunkt: 11°C
Fugtighed: 72%
Barometer: 1009 hPa
Clouds: Few Clouds
Visibility: 10 km
Cloud details: Few Clouds 762 m
2024/02/27 15:50 LIBD 271550Z 15014G25KT 9999 FEW025 16/11 Q1009